Time;durP1;ratioP1;P1;durP2;ratioP2;P2;SDS_P1;SDS_P2;PMS_P1;PMS_P2;Temp;Humidity;BMP_temperature;BMP_pressure;BME280_temperature;BME280_humidity;BME280_pressure;Samples;Min_cycle;Max_cycle;Signal;HPM_P1;HPM_P2
2022/08/14 00:00:41;;;;;;;4.65;1.40;;;20.00;74.40;;;;;;5030876;28;20032;-61
2022/08/14 00:03:06;;;;;;;4.00;1.60;;;19.80;75.50;;;;;;5032396;28;20030;-61
2022/08/14 00:05:32;;;;;;;3.22;1.33;;;19.60;76.50;;;;;;5031082;28;20025;-61
2022/08/14 00:07:58;;;;;;;4.15;1.80;;;19.50;79.10;;;;;;5032212;28;20552;-61
2022/08/14 00:10:23;;;;;;;2.85;1.88;;;19.30;80.00;;;;;;5030519;28;20036;-61
2022/08/14 00:12:54;;;;;;;3.85;1.45;;;19.30;80.60;;;;;;5031975;28;20207;-61
2022/08/14 00:15:34;;;;;;;7.55;1.90;;;19.20;82.60;;;;;;5030778;28;20130;-61
2022/08/14 00:18:01;;;;;;;3.42;1.70;;;19.20;82.70;;;;;;5032225;28;20572;-61
2022/08/14 00:20:34;;;;;;;2.97;1.70;;;19.10;85.20;;;;;;5030588;28;20034;-61
2022/08/14 00:23:00;;;;;;;3.70;1.33;;;19.00;88.70;;;;;;5031562;28;20035;-61
2022/08/14 00:25:27;;;;;;;5.38;1.67;;;18.90;87.40;;;;;;5030140;28;20033;-61
2022/08/14 00:27:54;;;;;;;3.90;1.50;;;18.90;89.20;;;;;;5031628;28;20043;-61
2022/08/14 00:30:21;;;;;;;3.40;1.70;;;18.80;90.10;;;;;;5030415;28;20060;-61
2022/08/14 00:32:46;;;;;;;2.72;1.73;;;18.80;88.70;;;;;;5032140;28;20033;-61
2022/08/14 00:35:12;;;;;;;3.65;1.60;;;18.70;88.90;;;;;;5031850;28;20573;-61
2022/08/14 00:37:40;;;;;;;7.88;1.67;;;18.70;91.80;;;;;;5030120;28;20063;-61
2022/08/14 00:40:07;;;;;;;3.20;1.60;;;18.60;91.80;;;;;;5031829;28;20034;-61
2022/08/14 00:42:33;;;;;;;1.73;1.63;;;18.60;92.90;;;;;;5025312;28;20025;-61
2022/08/14 00:44:58;;;;;;;2.35;1.85;;;18.60;92.50;;;;;;5031809;28;20029;-61
2022/08/14 00:47:24;;;;;;;4.35;1.27;;;18.60;91.20;;;;;;5029931;28;20038;-61
2022/08/14 00:49:55;;;;;;;2.75;2.03;;;18.60;92.00;;;;;;5031475;28;20021;-61
2022/08/14 00:52:21;;;;;;;5.28;1.75;;;18.70;92.00;;;;;;5029949;28;20485;-61
2022/08/14 00:54:52;;;;;;;2.53;1.55;;;18.70;91.90;;;;;;5031616;28;20026;-61
2022/08/14 00:57:19;;;;;;;3.35;1.30;;;18.70;91.00;;;;;;5029050;28;20036;-59
2022/08/14 00:59:44;;;;;;;3.05;1.27;;;18.60;90.90;;;;;;5031885;28;20056;-60
2022/08/14 01:02:13;;;;;;;3.70;1.85;;;18.60;91.40;;;;;;5031552;28;20485;-59
2022/08/14 01:04:42;;;;;;;8.60;1.83;;;18.60;91.90;;;;;;5028445;28;20040;-59
2022/08/14 01:07:08;;;;;;;1.67;1.45;;;18.50;92.20;;;;;;5026894;28;20485;-60
2022/08/14 01:09:36;;;;;;;2.03;1.30;;;18.40;92.80;;;;;;5028457;28;20057;-60
2022/08/14 01:12:03;;;;;;;5.65;1.10;;;18.40;93.30;;;;;;5030908;28;20029;-61
2022/08/14 01:14:29;;;;;;;8.48;1.70;;;18.30;93.60;;;;;;5029424;28;20029;-60
2022/08/14 01:16:54;;;;;;;2.75;1.38;;;18.20;94.00;;;;;;5031030;28;20384;-60
2022/08/14 01:22:06;;;;;;;5.95;1.80;;;18.10;95.20;;;;;;5030071;28;20429;-60
2022/08/14 01:24:32;;;;;;;3.55;1.70;;;18.10;95.50;;;;;;5028864;28;20149;-60
2022/08/14 01:26:59;;;;;;;1.60;1.50;;;18.00;95.90;;;;;;5030509;28;20033;-61
2022/08/14 01:29:26;;;;;;;2.95;1.45;;;18.00;95.90;;;;;;5029136;28;20065;-60
2022/08/14 01:31:52;;;;;;;2.90;1.50;;;18.00;96.10;;;;;;5029567;28;20124;-61
2022/08/14 01:34:19;;;;;;;4.70;2.58;;;18.00;96.00;;;;;;5028981;28;20056;-60
2022/08/14 01:36:45;;;;;;;4.80;1.60;;;18.00;96.00;;;;;;5030838;28;20028;-60
2022/08/14 01:39:14;;;;;;;1.92;1.50;;;18.00;96.40;;;;;;5030436;28;20052;-60
2022/08/14 01:41:42;;;;;;;3.35;2.30;;;17.90;96.80;;;;;;5028674;28;20029;-60
2022/08/14 01:44:12;;;;;;;5.00;1.35;;;17.90;97.00;;;;;;5029312;28;20047;-62
2022/08/14 01:46:40;;;;;;;5.80;1.42;;;17.90;97.40;;;;;;5028965;28;20129;-60
2022/08/14 01:49:08;;;;;;;2.60;1.63;;;17.90;97.70;;;;;;5030390;28;20037;-60
2022/08/14 01:51:36;;;;;;;2.05;1.30;;;17.90;97.40;;;;;;5028911;28;20083;-60
2022/08/14 01:54:12;;;;;;;2.28;1.50;;;17.90;97.10;;;;;;5030242;28;20025;-61
2022/08/14 01:56:39;;;;;;;1.65;1.52;;;18.00;96.80;;;;;;5027614;28;20037;-60
2022/08/14 01:59:18;;;;;;;3.70;1.27;;;18.00;96.60;;;;;;5029974;28;20434;-60
2022/08/14 02:01:50;;;;;;;3.20;1.30;;;18.10;96.40;;;;;;5022637;28;20029;-61
2022/08/14 02:04:18;;;;;;;4.03;1.45;;;18.20;96.10;;;;;;5026191;28;20120;-61
2022/08/14 02:06:44;;;;;;;3.53;1.42;;;18.30;96.20;;;;;;5030331;28;20422;-60
2022/08/14 02:09:10;;;;;;;3.38;1.40;;;18.30;96.60;;;;;;5030003;28;20074;-60
2022/08/14 02:11:36;;;;;;;3.00;1.58;;;18.30;96.50;;;;;;5028425;28;20580;-61
2022/08/14 02:14:05;;;;;;;1.92;1.20;;;18.40;96.50;;;;;;5029969;28;20070;-60
2022/08/14 02:16:37;;;;;;;2.08;1.23;;;18.40;96.80;;;;;;5028686;28;20044;-60
2022/08/14 02:19:26;;;;;;;1.42;1.23;;;18.40;97.10;;;;;;5030028;28;20075;-61
2022/08/14 02:21:56;;;;;;;3.45;1.38;;;18.30;97.90;;;;;;5026247;28;20037;-61
2022/08/14 02:24:24;;;;;;;3.25;1.25;;;18.20;98.30;;;;;;5027803;28;20021;-61
2022/08/14 02:26:52;;;;;;;4.30;1.30;;;18.20;99.10;;;;;;5029431;28;20036;-61
2022/08/14 02:29:22;;;;;;;2.05;1.67;;;18.10;99.30;;;;;;5026774;28;20068;-60
2022/08/14 02:31:51;;;;;;;2.72;1.58;;;18.10;99.90;;;;;;5022685;28;20482;-60
2022/08/14 02:34:31;;;;;;;3.60;1.60;;;18.00;99.90;;;;;;5028155;28;20025;-60
2022/08/14 02:37:01;;;;;;;2.88;1.23;;;18.00;99.90;;;;;;5021758;28;20040;-60
2022/08/14 02:39:29;;;;;;;4.85;1.45;;;17.90;99.90;;;;;;5028138;28;20025;-60
2022/08/14 02:41:55;;;;;;;2.58;1.33;;;17.80;99.90;;;;;;5028276;28;20056;-62
2022/08/14 02:44:22;;;;;;;2.50;1.20;;;17.80;99.90;;;;;;5027692;28;20053;-61
2022/08/14 02:46:51;;;;;;;1.58;1.40;;;17.80;99.90;;;;;;5028320;28;20036;-61
2022/08/14 02:49:17;;;;;;;4.20;1.40;;;17.80;99.90;;;;;;5027924;28;20134;-62
2022/08/14 02:51:47;;;;;;;6.35;1.70;;;17.70;99.90;;;;;;5028581;28;20540;-60
2022/08/14 02:54:13;;;;;;;4.40;1.55;;;17.60;99.90;;;;;;5028466;28;20026;-60
2022/08/14 02:56:39;;;;;;;5.05;1.80;;;17.60;99.90;;;;;;5027124;28;20474;-60
2022/08/14 02:59:08;;;;;;;5.63;1.77;;;17.40;99.90;;;;;;5029612;28;20033;-60
2022/08/14 03:01:34;;;;;;;2.45;2.20;;;17.30;99.90;;;;;;5027777;28;20025;-60
2022/08/14 03:04:00;;;;;;;3.15;1.55;;;17.20;99.90;;;;;;5029514;28;20025;-60
2022/08/14 03:06:27;;;;;;;1.48;1.10;;;17.10;99.90;;;;;;5026765;28;20021;-60
2022/08/14 03:08:54;;;;;;;1.58;1.25;;;17.20;99.90;;;;;;5029359;28;20543;-60
2022/08/14 03:11:20;;;;;;;6.00;1.90;;;17.10;99.90;;;;;;5027613;28;20076;-60
2022/08/14 03:13:50;;;;;;;2.72;1.50;;;17.10;99.90;;;;;;5029209;28;20116;-60
2022/08/14 03:16:18;;;;;;;5.43;1.75;;;17.10;99.90;;;;;;5029274;28;21616;-60
2022/08/14 03:18:47;;;;;;;2.08;1.77;;;17.10;99.90;;;;;;5023416;28;20116;-60
2022/08/14 03:21:19;;;;;;;3.92;2.13;;;17.00;99.90;;;;;;5029476;28;20029;-60
2022/08/14 03:23:45;;;;;;;;;;;16.90;99.90;;;;;;5029766;28;20436;-60
2022/08/14 03:26:16;;;;;;;2.65;1.90;;;16.90;99.90;;;;;;5029024;28;19981;-60
2022/08/14 03:28:43;;;;;;;2.58;1.75;;;16.80;99.90;;;;;;5026284;28;20506;-60
2022/08/14 03:31:10;;;;;;;2.78;2.55;;;16.80;99.90;;;;;;5029202;28;20064;-60
2022/08/14 03:33:39;;;;;;;3.72;2.10;;;16.80;99.90;;;;;;5029822;28;20094;-60
2022/08/14 03:36:11;;;;;;;5.40;1.90;;;16.80;99.90;;;;;;5033320;28;20017;-60
2022/08/14 03:38:44;;;;;;;2.58;1.95;;;16.70;99.90;;;;;;5022935;28;20421;-60
2022/08/14 03:41:13;;;;;;;2.00;1.80;;;16.60;99.90;;;;;;5032931;28;20083;-60
2022/08/14 03:43:43;;;;;;;5.03;1.58;;;16.50;99.90;;;;;;5031095;28;20099;-60
2022/08/14 03:46:10;;;;;;;3.92;1.90;;;16.50;99.90;;;;;;5032998;28;20112;-60
2022/08/14 03:48:38;;;;;;;2.38;1.85;;;16.40;99.90;;;;;;5031098;28;20037;-60
2022/08/14 03:51:07;;;;;;;3.95;2.03;;;16.40;99.90;;;;;;5033002;28;20500;-60
2022/08/14 03:53:36;;;;;;;2.90;1.90;;;16.50;99.90;;;;;;5030846;28;20497;-61
2022/08/14 03:56:06;;;;;;;2.40;1.73;;;16.40;99.90;;;;;;5032643;28;20029;-61
2022/08/14 03:58:32;;;;;;;2.17;1.65;;;16.30;99.90;;;;;;5031015;28;20143;-61
2022/08/14 04:00:59;;;;;;;2.85;1.80;;;16.40;99.90;;;;;;5032955;28;20029;-60
2022/08/14 04:03:25;;;;;;;6.03;1.90;;;16.40;99.90;;;;;;5030786;28;20025;-60
2022/08/14 04:05:52;;;;;;;2.65;1.90;;;16.40;99.90;;;;;;5032544;28;20376;-59
2022/08/14 04:08:19;;;;;;;2.15;1.75;;;16.40;99.90;;;;;;5030448;28;20041;-60
2022/08/14 04:10:45;;;;;;;2.17;1.60;;;16.40;99.90;;;;;;5032566;28;20057;-61
2022/08/14 04:13:11;;;;;;;1.80;1.60;;;16.50;99.90;;;;;;5031672;28;20025;-59
2022/08/14 04:15:37;;;;;;;2.10;1.60;;;16.50;99.90;;;;;;5030880;28;20467;-61
2022/08/14 04:18:07;;;;;;;2.05;1.42;;;16.40;99.90;;;;;;5032317;28;20397;-62
2022/08/14 04:20:33;;;;;;;2.45;1.75;;;16.40;99.90;;;;;;5029215;28;20474;-61
2022/08/14 04:22:59;;;;;;;6.00;1.88;;;16.40;99.90;;;;;;5032171;28;20092;-61
2022/08/14 04:25:25;;;;;;;2.85;1.85;;;16.30;99.90;;;;;;5030503;28;20083;-61
2022/08/14 04:27:50;;;;;;;3.60;1.90;;;16.20;99.90;;;;;;5031504;28;20041;-61
2022/08/14 04:30:17;;;;;;;4.50;1.90;;;16.10;99.90;;;;;;5032196;28;20099;-61
2022/08/14 04:32:43;;;;;;;3.88;2.30;;;16.10;99.90;;;;;;5014143;28;20025;-60
2022/08/14 04:35:09;;;;;;;2.75;1.90;;;16.10;99.90;;;;;;5032048;28;20032;-59
2022/08/14 04:45:48;;;;;;;2.78;2.28;;;16.00;99.90;;;;;;5030619;28;20064;-61
2022/08/14 04:48:15;;;;;;;4.85;2.10;;;16.10;99.90;;;;;;5031514;28;20485;-60
2022/08/14 04:50:48;;;;;;;3.85;1.70;;;16.10;99.90;;;;;;5030120;28;20055;-60
2022/08/14 04:53:16;;;;;;;1.95;1.77;;;16.30;99.90;;;;;;5031622;28;20025;-60
2022/08/14 04:55:46;;;;;;;2.80;1.65;;;16.40;99.90;;;;;;5029937;28;20472;-61
2022/08/14 04:58:16;;;;;;;1.67;1.58;;;16.60;99.90;;;;;;5029678;28;20060;-60
2022/08/14 05:00:43;;;;;;;3.08;1.67;;;16.70;99.90;;;;;;5028240;28;20127;-60
2022/08/14 05:03:09;;;;;;;3.88;1.63;;;16.80;99.90;;;;;;5031348;28;20045;-60
2022/08/14 05:05:35;;;;;;;3.88;2.05;;;16.90;99.90;;;;;;5029454;28;20022;-62
2022/08/14 05:08:11;;;;;;;3.67;1.77;;;17.10;99.90;;;;;;5031306;28;20124;-60
2022/08/14 05:10:50;;;;;;;4.70;1.70;;;17.30;99.90;;;;;;5020925;28;20037;-61
2022/08/14 05:13:17;;;;;;;4.45;2.03;;;17.50;99.90;;;;;;5030763;28;20017;-61
2022/08/14 05:15:45;;;;;;;4.22;1.80;;;17.60;99.90;;;;;;5030982;28;20106;-62
2022/08/14 05:18:13;;;;;;;3.83;1.63;;;17.80;99.90;;;;;;5031317;28;20417;-60
2022/08/14 05:20:42;;;;;;;5.03;1.90;;;17.90;99.90;;;;;;5029372;28;20078;-62
2022/08/14 05:23:09;;;;;;;4.72;2.13;;;18.00;99.90;;;;;;5031244;28;20076;-60
2022/08/14 05:25:36;;;;;;;1.30;1.20;;;18.00;99.90;;;;;;5029404;28;20029;-62
2022/08/14 05:28:17;;;;;;;3.70;2.00;;;18.10;99.90;;;;;;5030452;28;20123;-61
2022/08/14 05:30:48;;;;;;;2.72;1.70;;;18.10;99.90;;;;;;5030835;28;20052;-62
2022/08/14 05:33:17;;;;;;;9.23;1.75;;;18.00;99.90;;;;;;5019147;28;20025;-62
2022/08/14 05:35:43;;;;;;;3.55;1.90;;;18.00;99.90;;;;;;5030808;28;20033;-61
2022/08/14 05:38:12;;;;;;;2.13;1.52;;;17.80;99.90;;;;;;5029333;28;20473;-60
2022/08/14 05:40:40;;;;;;;2.10;1.80;;;17.70;99.90;;;;;;5029004;28;20029;-60
2022/08/14 05:43:06;;;;;;;4.93;1.60;;;17.50;99.90;;;;;;5028707;28;20029;-60
2022/08/14 05:45:34;;;;;;;6.50;2.20;;;17.40;99.90;;;;;;5028765;28;20393;-61
2022/08/14 05:48:01;;;;;;;3.67;1.90;;;17.30;99.90;;;;;;5030446;28;20508;-62
2022/08/14 05:50:26;;;;;;;2.38;2.17;;;17.20;99.90;;;;;;5028662;28;20033;-61
2022/08/14 05:52:53;;;;;;;3.58;1.75;;;17.10;99.90;;;;;;5030578;28;20079;-61
2022/08/14 05:55:20;;;;;;;2.78;1.88;;;17.20;99.90;;;;;;5028742;28;20043;-61
2022/08/14 05:57:57;;;;;;;2.70;2.50;;;17.10;99.90;;;;;;5029702;28;20047;-60
2022/08/14 06:00:28;;;;;;;2.28;2.03;;;17.10;99.90;;;;;;5017810;28;20117;-59
2022/08/14 06:02:57;;;;;;;2.33;2.05;;;17.10;99.90;;;;;;5030257;28;20029;-60
2022/08/14 06:05:23;;;;;;;2.42;2.22;;;17.10;99.90;;;;;;5028299;28;20063;-59
2022/08/14 06:07:49;;;;;;;3.85;2.22;;;17.20;99.90;;;;;;5030114;28;20029;-60
2022/08/14 06:10:15;;;;;;;6.55;2.10;;;17.40;99.90;;;;;;5026531;28;20389;-61
2022/08/14 06:12:41;;;;;;;2.45;2.05;;;17.50;99.90;;;;;;5027668;28;20029;-61
2022/08/14 06:15:08;;;;;;;4.07;2.08;;;17.60;99.90;;;;;;5024613;28;20080;-61
2022/08/14 06:17:44;;;;;;;2.63;2.08;;;17.70;99.90;;;;;;5028511;28;20032;-62
2022/08/14 06:20:12;;;;;;;4.85;2.10;;;17.90;99.90;;;;;;5028561;28;20440;-62
2022/08/14 06:22:38;;;;;;;3.33;1.98;;;18.10;99.90;;;;;;5028252;28;20430;-61
2022/08/14 06:25:05;;;;;;;4.25;1.70;;;18.20;99.90;;;;;;5030195;28;20025;-61
2022/08/14 06:27:38;;;;;;;4.85;1.70;;;18.30;99.90;;;;;;5027416;28;20037;-61
2022/08/14 06:30:10;;;;;;;2.33;1.70;;;18.40;99.90;;;;;;5029257;28;20029;-60
2022/08/14 06:32:36;;;;;;;;;;;18.50;99.90;;;;;;5027307;28;20075;-61
2022/08/14 06:35:05;;;;;;;1.95;1.65;;;18.60;99.90;;;;;;5030011;28;20007;-61
2022/08/14 06:37:42;;;;;;;4.45;1.48;;;18.90;99.90;;;;;;5028219;28;20036;-60
2022/08/14 06:40:09;;;;;;;3.38;1.63;;;19.00;99.90;;;;;;5025171;28;20036;-60
2022/08/14 06:42:36;;;;;;;4.07;1.70;;;19.10;99.90;;;;;;5027105;28;20080;-60
2022/08/14 06:45:02;;;;;;;2.83;1.73;;;19.30;99.90;;;;;;5026310;28;20033;-62
2022/08/14 06:47:27;;;;;;;4.53;2.33;;;19.40;99.90;;;;;;5026288;28;20555;-61
2022/08/14 06:49:53;;;;;;;3.33;2.05;;;19.60;99.90;;;;;;5029254;28;20068;-61
2022/08/14 06:52:19;;;;;;;6.45;1.52;;;19.70;99.90;;;;;;5027633;28;20053;-61
2022/08/14 06:54:44;;;;;;;1.77;1.20;;;19.80;99.90;;;;;;5029340;28;20159;-61
2022/08/14 06:57:11;;;;;;;3.83;2.05;;;19.90;99.90;;;;;;5027382;28;20025;-61
2022/08/14 06:59:36;;;;;;;2.78;1.65;;;19.90;99.90;;;;;;5025756;28;20179;-62
2022/08/14 07:07:39;;;;;;;3.05;1.75;;;20.10;99.90;;;;;;5028461;28;20041;-60
2022/08/14 07:10:05;;;;;;;2.17;1.80;;;20.10;99.90;;;;;;5033995;28;20029;-61
2022/08/14 07:12:31;;;;;;;2.63;1.63;;;20.10;99.90;;;;;;5030679;28;20039;-61
2022/08/14 07:14:57;;;;;;;3.00;1.63;;;20.10;99.90;;;;;;5033207;28;20026;-60
2022/08/14 07:17:23;;;;;;;2.30;1.60;;;20.10;99.90;;;;;;5031316;28;20481;-60
2022/08/14 07:19:49;;;;;;;3.38;1.90;;;20.20;99.90;;;;;;5032992;28;20076;-60
2022/08/14 07:22:15;;;;;;;2.50;1.60;;;20.30;99.90;;;;;;5032878;28;20112;-61
2022/08/14 07:24:40;;;;;;;3.63;1.70;;;20.30;99.90;;;;;;5031419;28;20022;-60
2022/08/14 07:27:06;;;;;;;3.70;1.60;;;20.40;99.90;;;;;;5026211;28;20120;-60
2022/08/14 07:29:31;;;;;;;1.90;1.30;;;20.50;99.90;;;;;;5030472;28;20065;-60
2022/08/14 07:31:57;;;;;;;2.08;1.60;;;20.70;99.90;;;;;;5036804;28;20057;-61
2022/08/14 07:34:23;;;;;;;4.05;2.00;;;20.70;99.90;;;;;;5026734;28;20025;-61
2022/08/14 07:36:48;;;;;;;5.93;2.00;;;20.80;99.90;;;;;;5032814;28;20033;-60
2022/08/14 07:39:14;;;;;;;2.35;1.35;;;21.00;99.90;;;;;;5037449;28;20025;-60
2022/08/14 07:41:40;;;;;;;5.60;1.50;;;21.00;99.90;;;;;;5031228;28;20076;-61
2022/08/14 07:44:06;;;;;;;2.60;1.45;;;21.10;99.90;;;;;;5029230;28;20050;-61
2022/08/14 07:46:31;;;;;;;3.00;1.92;;;21.20;99.90;;;;;;5025674;28;20061;-60
2022/08/14 07:48:58;;;;;;;2.97;1.70;;;21.30;99.90;;;;;;5030364;28;20535;-60
2022/08/14 07:51:23;;;;;;;2.83;1.48;;;21.40;99.90;;;;;;5030147;28;20022;-60
2022/08/14 07:53:49;;;;;;;3.17;1.60;;;21.50;99.90;;;;;;5031659;28;20140;-61
2022/08/14 07:56:16;;;;;;;2.22;1.48;;;21.60;99.90;;;;;;5029166;28;20021;-61
2022/08/14 07:58:41;;;;;;;2.90;2.20;;;21.70;99.90;;;;;;5027399;28;20527;-60
2022/08/14 08:01:10;;;;;;;3.92;1.90;;;21.80;99.90;;;;;;5032041;28;20022;-61
2022/08/14 08:03:39;;;;;;;3.17;1.65;;;21.80;99.90;;;;;;5026947;28;20079;-61
2022/08/14 08:06:06;;;;;;;2.53;1.85;;;21.90;99.90;;;;;;5031857;28;20030;-61
2022/08/14 08:08:31;;;;;;;4.65;1.70;;;21.90;99.90;;;;;;5030133;28;20040;-61
2022/08/14 08:10:59;;;;;;;4.10;1.90;;;22.00;99.90;;;;;;5031865;28;20029;-61
2022/08/14 08:13:26;;;;;;;6.07;1.70;;;22.00;99.90;;;;;;5028223;28;20033;-61
2022/08/14 08:15:55;;;;;;;3.13;1.55;;;22.00;99.90;;;;;;5028568;28;20061;-61
2022/08/14 08:18:22;;;;;;;3.70;1.85;;;22.00;99.90;;;;;;5029684;28;20112;-61
2022/08/14 08:20:51;;;;;;;4.40;1.77;;;22.10;99.90;;;;;;5029409;28;20030;-61
2022/08/14 08:23:20;;;;;;;6.00;2.40;;;22.10;99.90;;;;;;5030598;28;20528;-61
2022/08/14 08:25:49;;;;;;;4.05;2.10;;;22.20;99.90;;;;;;5030461;28;20037;-61
2022/08/14 08:28:22;;;;;;;6.65;2.00;;;22.30;99.90;;;;;;5030481;28;20044;-61
2022/08/14 08:30:48;;;;;;;2.75;1.85;;;22.40;99.90;;;;;;5029908;28;20104;-61
2022/08/14 08:33:15;;;;;;;3.97;1.77;;;22.50;99.90;;;;;;5030909;28;20116;-62
2022/08/14 08:35:42;;;;;;;4.00;1.63;;;22.60;99.90;;;;;;5029516;28;20032;-61
2022/08/14 08:38:13;;;;;;;6.15;1.90;;;22.70;99.90;;;;;;5030353;28;20500;-61
2022/08/14 08:40:44;;;;;;;3.92;2.13;;;22.80;99.90;;;;;;5027329;28;20033;-60
2022/08/14 08:43:20;;;;;;;3.60;1.83;;;23.00;99.90;;;;;;5030018;28;20120;-61
2022/08/14 08:45:59;;;;;;;5.82;2.10;;;23.10;99.90;;;;;;5031671;28;20499;-60
2022/08/14 08:48:30;;;;;;;3.15;2.25;;;23.20;99.90;;;;;;5029271;28;20477;-60
2022/08/14 08:51:01;;;;;;;4.13;2.20;;;23.30;99.90;;;;;;5031565;28;20167;-60
2022/08/14 08:53:32;;;;;;;4.38;1.52;;;23.40;99.90;;;;;;5029377;28;20040;-61
2022/08/14 08:55:58;;;;;;;2.90;2.00;;;23.50;99.90;;;;;;5031659;28;20033;-61
2022/08/14 08:58:24;;;;;;;3.55;2.00;;;23.60;99.90;;;;;;5029005;28;20029;-61
2022/08/14 09:00:52;;;;;;;5.07;1.60;;;23.80;98.90;;;;;;5031335;28;20516;-61
2022/08/14 09:03:24;;;;;;;2.45;1.52;;;24.00;99.10;;;;;;5030193;28;20509;-60
2022/08/14 09:06:00;;;;;;;4.63;2.15;;;24.10;95.60;;;;;;5020574;28;20025;-61
2022/08/14 09:08:27;;;;;;;3.50;1.95;;;24.40;95.90;;;;;;5029049;28;20042;-61
2022/08/14 09:10:55;;;;;;;4.72;2.17;;;24.50;97.10;;;;;;5030994;28;20025;-61
2022/08/14 09:13:25;;;;;;;3.72;1.75;;;24.60;96.70;;;;;;5028724;28;20021;-61
2022/08/14 09:15:52;;;;;;;4.00;2.33;;;24.60;96.20;;;;;;5031123;28;20116;-62
2022/08/14 09:18:19;;;;;;;3.90;1.45;;;24.70;96.30;;;;;;5030555;28;20036;-62
2022/08/14 09:20:52;;;;;;;3.53;2.15;;;24.80;94.30;;;;;;5030774;28;20060;-61
2022/08/14 09:23:18;;;;;;;2.45;1.55;;;25.00;93.50;;;;;;5030628;28;20033;-62
2022/08/14 09:25:46;;;;;;;2.15;1.65;;;25.30;91.40;;;;;;5030645;28;20021;-62
2022/08/14 09:28:13;;;;;;;3.60;1.40;;;25.50;91.90;;;;;;5027609;28;20132;-61
2022/08/14 09:30:52;;;;;;;4.72;1.50;;;25.60;91.50;;;;;;5028590;28;20029;-61
2022/08/14 09:33:30;;;;;;;2.83;1.70;;;25.70;91.50;;;;;;5026516;28;20493;-60
2022/08/14 09:36:25;;;;;;;4.53;1.42;;;25.70;89.10;;;;;;5025246;28;20677;-60
2022/08/14 09:39:10;;;;;;;5.13;1.55;;;25.90;90.40;;;;;;5023651;28;20030;-61
2022/08/14 09:41:45;;;;;;;3.88;1.75;;;26.10;84.80;;;;;;5027786;28;20112;-60
2022/08/14 09:44:28;;;;;;;3.58;1.70;;;26.40;86.40;;;;;;5029643;28;20046;-62
2022/08/14 09:46:55;;;;;;;2.22;1.55;;;26.60;85.30;;;;;;5028164;28;20428;-62
2022/08/14 09:49:35;;;;;;;3.92;1.42;;;26.80;85.10;;;;;;5028718;28;20090;-62
2022/08/14 09:52:04;;;;;;;4.97;2.05;;;26.90;82.50;;;;;;5022896;28;20021;-61
2022/08/14 09:54:42;;;;;;;3.20;1.40;;;27.00;78.70;;;;;;5028664;28;20033;-61
2022/08/14 09:57:09;;;;;;;2.72;1.30;;;27.20;69.40;;;;;;5029447;28;20104;-61
2022/08/14 09:59:46;;;;;;;3.47;1.58;;;27.50;71.80;;;;;;5028420;28;20025;-61
2022/08/14 10:02:31;;;;;;;2.28;1.75;;;27.50;74.90;;;;;;5025468;28;20025;-61
2022/08/14 10:05:05;;;;;;;1.58;1.17;;;27.40;77.00;;;;;;5029723;28;20033;-61
2022/08/14 10:07:35;;;;;;;1.75;1.40;;;27.30;64.00;;;;;;5018378;28;20044;-61
2022/08/14 10:10:03;;;;;;;4.78;1.38;;;27.40;69.00;;;;;;5029885;28;20072;-61
2022/08/14 10:12:45;;;;;;;4.57;1.65;;;27.50;69.30;;;;;;5027967;28;20037;-61
2022/08/14 10:15:20;;;;;;;5.30;1.80;;;27.80;65.40;;;;;;5029605;28;20043;-61
2022/08/14 10:17:47;;;;;;;2.90;1.60;;;28.20;65.20;;;;;;5021924;28;20026;-61
2022/08/14 10:20:15;;;;;;;2.38;1.23;;;28.70;58.00;;;;;;5029539;28;20069;-61
2022/08/14 10:22:41;;;;;;;3.92;1.13;;;29.10;55.80;;;;;;5028282;28;20026;-62
2022/08/14 10:25:16;;;;;;;4.28;1.33;;;29.40;52.10;;;;;;5029687;28;20535;-62
2022/08/14 10:27:49;;;;;;;1.38;1.23;;;29.70;49.40;;;;;;5020312;28;20026;-61
2022/08/14 10:30:16;;;;;;;1.95;1.00;;;29.90;49.80;;;;;;5029278;28;20033;-62
2022/08/14 10:32:44;;;;;;;3.72;0.95;;;30.40;45.80;;;;;;5028013;28;20029;-62
2022/08/14 10:35:12;;;;;;;1.20;0.95;;;30.50;45.70;;;;;;5029543;28;20121;-62
2022/08/14 10:37:47;;;;;;;1.08;0.98;;;30.80;44.90;;;;;;5019592;28;20072;-62
2022/08/14 10:40:34;;;;;;;3.88;1.73;;;31.00;42.80;;;;;;5029467;28;20017;-62
2022/08/14 10:43:01;;;;;;;1.88;1.25;;;31.20;41.90;;;;;;5024476;28;20077;-61
2022/08/14 10:45:32;;;;;;;2.30;1.10;;;31.40;40.90;;;;;;5027524;28;20051;-61
2022/08/14 10:47:58;;;;;;;1.08;0.95;;;31.60;40.50;;;;;;5028112;28;20033;-61
2022/08/14 10:50:32;;;;;;;3.35;0.93;;;31.70;38.90;;;;;;5027274;28;20500;-62
2022/08/14 10:52:59;;;;;;;1.40;1.00;;;31.70;38.80;;;;;;5025716;28;20036;-63
2022/08/14 10:55:38;;;;;;;1.08;0.98;;;31.60;38.10;;;;;;5026128;28;20032;-62
2022/08/14 10:58:10;;;;;;;2.58;1.30;;;31.60;38.80;;;;;;5028629;28;20048;-62
2022/08/14 11:00:38;;;;;;;1.20;1.08;;;31.90;38.30;;;;;;5027618;28;20041;-62
2022/08/14 11:03:13;;;;;;;1.52;0.88;;;32.10;38.10;;;;;;5028422;28;20450;-61
2022/08/14 11:05:47;;;;;;;1.48;0.80;;;32.30;36.10;;;;;;5027442;28;20469;-62
2022/08/14 11:08:14;;;;;;;2.72;1.00;;;32.30;35.70;;;;;;5027369;28;20034;-61
2022/08/14 11:10:57;;;;;;;1.92;0.95;;;32.30;35.20;;;;;;5027707;28;20031;-61
2022/08/14 11:13:26;;;;;;;1.80;1.00;;;32.80;35.20;;;;;;5026695;28;20057;-62
2022/08/14 11:15:55;;;;;;;2.63;1.05;;;33.00;34.50;;;;;;5029204;28;20091;-62
2022/08/14 11:18:21;;;;;;;1.58;0.80;;;33.40;34.50;;;;;;5026949;28;20430;-62
2022/08/14 11:20:55;;;;;;;2.15;0.90;;;33.90;33.80;;;;;;5021291;28;20497;-62
2022/08/14 11:23:27;;;;;;;2.83;1.27;;;34.00;32.50;;;;;;5027120;28;20427;-61
2022/08/14 11:25:55;;;;;;;1.40;0.95;;;34.30;33.60;;;;;;5016540;28;20079;-61
2022/08/14 11:28:32;;;;;;;2.13;0.88;;;34.60;32.70;;;;;;5026867;28;20037;-62
2022/08/14 11:31:00;;;;;;;4.40;1.45;;;34.90;32.20;;;;;;5028603;28;20022;-62
2022/08/14 11:33:31;;;;;;;6.45;1.63;;;35.20;35.30;;;;;;5027077;28;20612;-61
2022/08/14 11:36:01;;;;;;;4.05;1.70;;;35.20;37.40;;;;;;5028971;28;20457;-61
2022/08/14 11:38:34;;;;;;;2.20;1.60;;;34.50;38.40;;;;;;5027021;28;20076;-62
2022/08/14 11:41:00;;;;;;;3.63;1.67;;;33.30;38.70;;;;;;5028718;28;20155;-59
2022/08/14 11:43:26;;;;;;;4.00;1.52;;;32.90;40.20;;;;;;5026837;28;20102;-61
2022/08/14 11:45:52;;;;;;;2.42;1.50;;;32.40;39.70;;;;;;5029092;28;20490;-62
2022/08/14 11:48:20;;;;;;;6.32;1.60;;;31.90;40.80;;;;;;5028277;28;20033;-62
2022/08/14 11:50:48;;;;;;;1.50;1.40;;;32.00;40.50;;;;;;5029039;28;20033;-62
2022/08/14 11:53:22;;;;;;;2.05;1.30;;;32.40;40.60;;;;;;5028829;28;20017;-60
2022/08/14 11:56:01;;;;;;;6.18;1.63;;;32.70;40.00;;;;;;5032696;28;20041;-62
2022/08/14 11:58:35;;;;;;;1.27;1.13;;;33.10;39.60;;;;;;5030078;28;20087;-62
2022/08/14 12:01:07;;;;;;;5.38;1.38;;;32.90;37.90;;;;;;5031733;28;20037;-61
2022/08/14 12:03:44;;;;;;;6.72;1.40;;;32.40;37.80;;;;;;5030141;28;20089;-61
2022/08/14 12:06:15;;;;;;;2.17;1.33;;;32.40;38.00;;;;;;5032349;28;20037;-61
2022/08/14 12:08:42;;;;;;;3.05;1.40;;;32.20;38.10;;;;;;5029221;28;20110;-60
2022/08/14 12:11:12;;;;;;;3.90;1.40;;;32.20;38.10;;;;;;5031916;28;20478;-59
2022/08/14 12:13:40;;;;;;;2.72;1.58;;;32.10;39.00;;;;;;5030391;28;20021;-61
2022/08/14 12:16:08;;;;;;;3.13;1.77;;;32.00;40.00;;;;;;5031474;28;20363;-61
2022/08/14 12:18:42;;;;;;;1.90;1.35;;;31.90;41.00;;;;;;5030246;28;20033;-60
2022/08/14 12:21:16;;;;;;;7.00;1.77;;;31.50;42.00;;;;;;5031889;28;20432;-62
2022/08/14 12:23:43;;;;;;;2.60;1.70;;;31.60;43.00;;;;;;5030500;28;20424;-63
2022/08/14 12:26:16;;;;;;;4.32;1.55;;;31.50;43.00;;;;;;5031324;28;20034;-66
2022/08/14 12:28:42;;;;;;;2.50;1.30;;;31.60;42.70;;;;;;5023432;28;20052;-64
2022/08/14 12:31:17;;;;;;;5.88;1.50;;;32.10;40.20;;;;;;5030581;28;20044;-64
2022/08/14 12:33:54;;;;;;;1.50;1.20;;;32.40;39.60;;;;;;5029330;28;20076;-63
2022/08/14 12:36:20;;;;;;;2.35;1.60;;;32.50;38.30;;;;;;5024398;28;20037;-64
2022/08/14 12:38:49;;;;;;;1.50;1.40;;;32.70;39.20;;;;;;5029093;28;20036;-65
2022/08/14 12:41:19;;;;;;;3.85;1.38;;;32.80;38.70;;;;;;5031018;28;20474;-64
2022/08/14 12:43:50;;;;;;;4.32;1.65;;;33.50;38.60;;;;;;5031086;28;20092;-63
2022/08/14 12:46:42;;;;;;;3.03;1.65;;;34.30;38.70;;;;;;5030540;28;20484;-65
2022/08/14 12:49:13;;;;;;;2.08;1.60;;;35.00;37.50;;;;;;5021900;28;20041;-63
2022/08/14 12:51:39;;;;;;;;;;;35.50;36.30;;;;;;5029738;28;20989;-65
2022/08/14 12:54:14;;;;;;;2.00;1.65;;;36.10;36.10;;;;;;5030339;28;19909;-64
2022/08/14 12:56:41;;;;;;;4.50;1.55;;;36.50;34.80;;;;;;5028982;28;20367;-64
2022/08/14 12:59:06;;;;;;;4.25;1.90;;;36.90;34.40;;;;;;5030388;28;20029;-64
2022/08/14 13:01:34;;;;;;;3.10;1.95;;;37.20;34.70;;;;;;5029106;28;20045;-63
2022/08/14 13:04:11;;;;;;;7.25;2.10;;;37.90;34.50;;;;;;5030547;28;20021;-63
2022/08/14 13:06:43;;;;;;;3.65;2.35;;;38.20;34.20;;;;;;5028573;28;20059;-63
2022/08/14 13:09:11;;;;;;;5.43;2.20;;;38.70;33.00;;;;;;5030568;28;20516;-63
2022/08/14 13:11:50;;;;;;;3.22;2.10;;;38.60;32.40;;;;;;5023108;28;20113;-64
2022/08/14 13:14:29;;;;;;;4.57;1.90;;;38.60;32.60;;;;;;5018943;28;20037;-64